sensor_id;sensor_type;location;lat;lon;timestamp;pressure;altitude;pressure_sealevel;temperature;humidity
51147;BME280;37207;53.060;18.726;2023-04-05T00:01:33;101460.10;;;-1.93;73.21
51147;BME280;37207;53.060;18.726;2023-04-05T00:04:00;101460.71;;;-1.94;73.18
51147;BME280;37207;53.060;18.726;2023-04-05T00:06:28;101459.94;;;-1.94;73.27
51147;BME280;37207;53.060;18.726;2023-04-05T00:08:55;101462.71;;;-1.96;73.37
51147;BME280;37207;53.060;18.726;2023-04-05T00:11:21;101461.30;;;-1.98;73.75
51147;BME280;37207;53.060;18.726;2023-04-05T00:13:48;101457.63;;;-2.02;73.62
51147;BME280;37207;53.060;18.726;2023-04-05T00:16:15;101456.38;;;-2.05;73.56
51147;BME280;37207;53.060;18.726;2023-04-05T00:18:41;101452.11;;;-2.06;73.22
51147;BME280;37207;53.060;18.726;2023-04-05T00:21:15;101452.89;;;-2.08;73.35
51147;BME280;37207;53.060;18.726;2023-04-05T00:23:41;101446.77;;;-2.09;73.49
51147;BME280;37207;53.060;18.726;2023-04-05T00:26:10;101443.80;;;-2.16;73.53
51147;BME280;37207;53.060;18.726;2023-04-05T00:28:37;101441.35;;;-2.21;73.21
51147;BME280;37207;53.060;18.726;2023-04-05T00:31:04;101438.56;;;-2.23;73.57
51147;BME280;37207;53.060;18.726;2023-04-05T00:33:31;101437.48;;;-2.23;73.90
51147;BME280;37207;53.060;18.726;2023-04-05T00:35:56;101434.87;;;-2.21;73.96
51147;BME280;37207;53.060;18.726;2023-04-05T00:38:22;101439.52;;;-2.18;73.88
51147;BME280;37207;53.060;18.726;2023-04-05T00:40:48;101441.27;;;-2.21;73.96
51147;BME280;37207;53.060;18.726;2023-04-05T00:43:14;101439.34;;;-2.22;73.95
51147;BME280;37207;53.060;18.726;2023-04-05T00:45:40;101432.92;;;-2.22;73.92
51147;BME280;37207;53.060;18.726;2023-04-05T00:48:07;101431.91;;;-2.23;73.77
51147;BME280;37207;53.060;18.726;2023-04-05T00:50:33;101429.52;;;-2.25;74.03
51147;BME280;37207;53.060;18.726;2023-04-05T00:52:59;101430.39;;;-2.33;74.05
51147;BME280;37207;53.060;18.726;2023-04-05T00:55:26;101430.88;;;-2.41;73.88
51147;BME280;37207;53.060;18.726;2023-04-05T00:57:53;101429.92;;;-2.46;73.93
51147;BME280;37207;53.060;18.726;2023-04-05T01:00:21;101429.52;;;-2.48;74.08
51147;BME280;37207;53.060;18.726;2023-04-05T01:02:51;101427.98;;;-2.48;74.06
51147;BME280;37207;53.060;18.726;2023-04-05T01:08:17;101430.82;;;-2.51;73.92
51147;BME280;37207;53.060;18.726;2023-04-05T01:11:01;101421.58;;;-2.56;73.97
51147;BME280;37207;53.060;18.726;2023-04-05T01:13:28;101420.94;;;-2.58;74.21
51147;BME280;37207;53.060;18.726;2023-04-05T01:15:54;101416.84;;;-2.61;74.30
51147;BME280;37207;53.060;18.726;2023-04-05T01:18:20;101418.89;;;-2.64;74.18
51147;BME280;37207;53.060;18.726;2023-04-05T01:27:03;101406.52;;;-2.74;74.45
51147;BME280;37207;53.060;18.726;2023-04-05T01:29:50;101404.14;;;-2.73;74.53
51147;BME280;37207;53.060;18.726;2023-04-05T01:32:44;101406.63;;;-2.70;74.68
51147;BME280;37207;53.060;18.726;2023-04-05T01:35:21;101404.59;;;-2.65;74.81
51147;BME280;37207;53.060;18.726;2023-04-05T01:37:56;101405.07;;;-2.63;75.07
51147;BME280;37207;53.060;18.726;2023-04-05T01:40:24;101400.11;;;-2.65;74.99
51147;BME280;37207;53.060;18.726;2023-04-05T01:42:50;101404.04;;;-2.66;75.12
51147;BME280;37207;53.060;18.726;2023-04-05T01:45:16;101402.64;;;-2.67;75.13
51147;BME280;37207;53.060;18.726;2023-04-05T01:47:42;101400.36;;;-2.72;75.08
51147;BME280;37207;53.060;18.726;2023-04-05T01:50:08;101395.60;;;-2.79;74.95
51147;BME280;37207;53.060;18.726;2023-04-05T01:52:34;101394.28;;;-2.88;75.02
51147;BME280;37207;53.060;18.726;2023-04-05T01:54:59;101394.84;;;-2.97;75.47
51147;BME280;37207;53.060;18.726;2023-04-05T01:57:25;101397.27;;;-3.02;75.31
51147;BME280;37207;53.060;18.726;2023-04-05T01:59:51;101398.25;;;-3.04;75.51
51147;BME280;37207;53.060;18.726;2023-04-05T02:02:17;101398.64;;;-3.03;75.92
51147;BME280;37207;53.060;18.726;2023-04-05T02:04:43;101401.13;;;-3.01;76.20
51147;BME280;37207;53.060;18.726;2023-04-05T02:07:09;101400.30;;;-3.00;76.10
51147;BME280;37207;53.060;18.726;2023-04-05T02:09:35;101399.02;;;-2.97;75.81
51147;BME280;37207;53.060;18.726;2023-04-05T02:12:00;101401.11;;;-2.94;75.75
51147;BME280;37207;53.060;18.726;2023-04-05T02:14:27;101394.31;;;-2.93;75.58
51147;BME280;37207;53.060;18.726;2023-04-05T02:16:53;101397.86;;;-2.93;75.52
51147;BME280;37207;53.060;18.726;2023-04-05T02:19:22;101392.21;;;-2.94;75.53
51147;BME280;37207;53.060;18.726;2023-04-05T02:21:49;101390.14;;;-2.96;75.60
51147;BME280;37207;53.060;18.726;2023-04-05T02:24:15;101391.56;;;-3.01;75.72
51147;BME280;37207;53.060;18.726;2023-04-05T02:26:41;101389.21;;;-3.03;75.72
51147;BME280;37207;53.060;18.726;2023-04-05T02:29:06;101389.90;;;-3.04;75.87
51147;BME280;37207;53.060;18.726;2023-04-05T02:31:32;101386.50;;;-3.05;75.73
51147;BME280;37207;53.060;18.726;2023-04-05T02:33:58;101382.63;;;-3.05;75.79
51147;BME280;37207;53.060;18.726;2023-04-05T02:36:25;101382.86;;;-3.05;76.01
51147;BME280;37207;53.060;18.726;2023-04-05T02:38:53;101386.95;;;-3.06;75.83
51147;BME280;37207;53.060;18.726;2023-04-05T02:41:19;101383.06;;;-3.08;75.49
51147;BME280;37207;53.060;18.726;2023-04-05T02:43:47;101385.21;;;-3.10;75.97
51147;BME280;37207;53.060;18.726;2023-04-05T02:46:13;101384.89;;;-3.13;75.90
51147;BME280;37207;53.060;18.726;2023-04-05T02:48:40;101384.42;;;-3.15;75.87
51147;BME280;37207;53.060;18.726;2023-04-05T02:51:07;101381.80;;;-3.13;75.82
51147;BME280;37207;53.060;18.726;2023-04-05T02:53:33;101379.73;;;-3.11;76.12
51147;BME280;37207;53.060;18.726;2023-04-05T02:56:02;101380.66;;;-3.10;76.16
51147;BME280;37207;53.060;18.726;2023-04-05T02:58:28;101376.86;;;-3.11;75.87
51147;BME280;37207;53.060;18.726;2023-04-05T03:00:55;101378.45;;;-3.17;75.68
51147;BME280;37207;53.060;18.726;2023-04-05T03:03:27;101379.63;;;-3.23;75.99
51147;BME280;37207;53.060;18.726;2023-04-05T03:06:00;101379.83;;;-3.26;76.13
51147;BME280;37207;53.060;18.726;2023-04-05T03:08:38;101378.86;;;-3.23;76.38
51147;BME280;37207;53.060;18.726;2023-04-05T03:11:09;101377.73;;;-3.20;76.57
51147;BME280;37207;53.060;18.726;2023-04-05T03:13:37;101380.52;;;-3.18;76.21
51147;BME280;37207;53.060;18.726;2023-04-05T03:16:06;101379.29;;;-3.18;76.28
51147;BME280;37207;53.060;18.726;2023-04-05T03:18:32;101377.15;;;-3.16;76.39
51147;BME280;37207;53.060;18.726;2023-04-05T03:21:04;101379.55;;;-3.16;76.21
51147;BME280;37207;53.060;18.726;2023-04-05T03:23:31;101374.98;;;-3.16;75.94
51147;BME280;37207;53.060;18.726;2023-04-05T03:26:02;101378.84;;;-3.17;76.27
51147;BME280;37207;53.060;18.726;2023-04-05T03:28:30;101378.38;;;-3.24;75.99
51147;BME280;37207;53.060;18.726;2023-04-05T03:31:01;101378.33;;;-3.32;76.01
51147;BME280;37207;53.060;18.726;2023-04-05T03:33:27;101376.50;;;-3.36;76.24
51147;BME280;37207;53.060;18.726;2023-04-05T03:35:53;101377.57;;;-3.36;76.25
51147;BME280;37207;53.060;18.726;2023-04-05T03:38:19;101374.86;;;-3.38;76.33
51147;BME280;37207;53.060;18.726;2023-04-05T03:41:02;101371.75;;;-3.40;76.46
51147;BME280;37207;53.060;18.726;2023-04-05T03:43:28;101368.48;;;-3.42;76.66
51147;BME280;37207;53.060;18.726;2023-04-05T03:45:55;101365.47;;;-3.42;76.32
51147;BME280;37207;53.060;18.726;2023-04-05T03:48:22;101365.16;;;-3.42;76.47
51147;BME280;37207;53.060;18.726;2023-04-05T03:50:48;101363.39;;;-3.42;76.22
51147;BME280;37207;53.060;18.726;2023-04-05T03:53:14;101365.41;;;-3.40;76.51
51147;BME280;37207;53.060;18.726;2023-04-05T03:55:46;101363.17;;;-3.40;76.11
51147;BME280;37207;53.060;18.726;2023-04-05T03:58:15;101361.89;;;-3.37;76.50
51147;BME280;37207;53.060;18.726;2023-04-05T04:00:41;101360.95;;;-3.32;76.72
51147;BME280;37207;53.060;18.726;2023-04-05T04:03:11;101364.77;;;-3.26;76.92
51147;BME280;37207;53.060;18.726;2023-04-05T04:05:41;101368.74;;;-3.22;76.46
51147;BME280;37207;53.060;18.726;2023-04-05T04:08:08;101371.51;;;-3.24;76.42
51147;BME280;37207;53.060;18.726;2023-04-05T04:10:35;101370.23;;;-3.27;76.40
51147;BME280;37207;53.060;18.726;2023-04-05T04:13:01;101369.84;;;-3.30;76.09
51147;BME280;37207;53.060;18.726;2023-04-05T04:15:31;101368.05;;;-3.31;76.50
51147;BME280;37207;53.060;18.726;2023-04-05T04:18:08;101376.54;;;-3.31;76.39
51147;BME280;37207;53.060;18.726;2023-04-05T04:21:03;101380.72;;;-3.31;76.46
51147;BME280;37207;53.060;18.726;2023-04-05T04:23:54;101380.56;;;-3.31;76.40
51147;BME280;37207;53.060;18.726;2023-04-05T04:26:44;101381.65;;;-3.31;76.23
51147;BME280;37207;53.060;18.726;2023-04-05T04:29:20;101383.27;;;-3.31;76.68
51147;BME280;37207;53.060;18.726;2023-04-05T04:32:09;101379.02;;;-3.30;76.49
51147;BME280;37207;53.060;18.726;2023-04-05T04:34:45;101382.73;;;-3.30;76.52
51147;BME280;37207;53.060;18.726;2023-04-05T04:37:31;101381.58;;;-3.29;76.37
51147;BME280;37207;53.060;18.726;2023-04-05T04:40:20;101381.51;;;-3.28;76.37
51147;BME280;37207;53.060;18.726;2023-04-05T04:43:13;101384.83;;;-3.27;76.36
51147;BME280;37207;53.060;18.726;2023-04-05T04:46:03;101387.20;;;-3.23;76.27
51147;BME280;37207;53.060;18.726;2023-04-05T04:48:38;101383.40;;;-3.17;76.71
51147;BME280;37207;53.060;18.726;2023-04-05T04:51:27;101384.73;;;-3.05;76.67
51147;BME280;37207;53.060;18.726;2023-04-05T04:53:53;101382.72;;;-2.96;76.66
51147;BME280;37207;53.060;18.726;2023-04-05T04:56:19;101382.41;;;-2.86;76.69
51147;BME280;37207;53.060;18.726;2023-04-05T04:58:47;101385.72;;;-2.77;76.47
51147;BME280;37207;53.060;18.726;2023-04-05T05:01:13;101386.98;;;-2.73;76.76
51147;BME280;37207;53.060;18.726;2023-04-05T05:03:39;101388.08;;;-2.70;76.61
51147;BME280;37207;53.060;18.726;2023-04-05T05:06:05;101388.05;;;-2.65;76.78
51147;BME280;37207;53.060;18.726;2023-04-05T05:08:33;101388.47;;;-2.60;76.98
51147;BME280;37207;53.060;18.726;2023-04-05T05:10:59;101388.72;;;-2.56;76.55
51147;BME280;37207;53.060;18.726;2023-04-05T05:13:25;101389.85;;;-2.51;76.66
51147;BME280;37207;53.060;18.726;2023-04-05T05:15:51;101392.74;;;-2.44;76.53
51147;BME280;37207;53.060;18.726;2023-04-05T05:18:17;101393.17;;;-2.36;76.44
51147;BME280;37207;53.060;18.726;2023-04-05T05:20:43;101392.30;;;-2.29;76.63
51147;BME280;37207;53.060;18.726;2023-04-05T05:23:09;101393.02;;;-2.23;76.50
51147;BME280;37207;53.060;18.726;2023-04-05T05:25:35;101394.20;;;-2.19;76.42
51147;BME280;37207;53.060;18.726;2023-04-05T05:28:01;101398.02;;;-2.15;76.50
51147;BME280;37207;53.060;18.726;2023-04-05T05:30:28;101396.42;;;-2.07;76.40
51147;BME280;37207;53.060;18.726;2023-04-05T05:32:54;101395.31;;;-1.99;76.62
51147;BME280;37207;53.060;18.726;2023-04-05T05:35:19;101397.98;;;-1.90;76.24
51147;BME280;37207;53.060;18.726;2023-04-05T05:37:46;101396.00;;;-1.82;76.33
51147;BME280;37207;53.060;18.726;2023-04-05T05:40:12;101398.12;;;-1.71;76.57
51147;BME280;37207;53.060;18.726;2023-04-05T05:42:38;101396.23;;;-1.60;76.57
51147;BME280;37207;53.060;18.726;2023-04-05T05:45:05;101392.59;;;-1.52;76.49
51147;BME280;37207;53.060;18.726;2023-04-05T05:47:31;101394.64;;;-1.43;76.37
51147;BME280;37207;53.060;18.726;2023-04-05T05:49:57;101396.03;;;-1.38;76.09
51147;BME280;37207;53.060;18.726;2023-04-05T05:52:23;101392.09;;;-1.35;76.22
51147;BME280;37207;53.060;18.726;2023-04-05T05:54:49;101390.06;;;-1.36;75.93
51147;BME280;37207;53.060;18.726;2023-04-05T05:57:15;101394.57;;;-1.36;75.77
51147;BME280;37207;53.060;18.726;2023-04-05T05:59:41;101393.48;;;-1.32;76.00
51147;BME280;37207;53.060;18.726;2023-04-05T06:02:07;101398.08;;;-1.29;76.20
51147;BME280;37207;53.060;18.726;2023-04-05T06:04:33;101397.31;;;-1.26;76.21
51147;BME280;37207;53.060;18.726;2023-04-05T06:06:59;101395.36;;;-1.21;76.23
51147;BME280;37207;53.060;18.726;2023-04-05T06:09:26;101396.69;;;-1.17;75.94
51147;BME280;37207;53.060;18.726;2023-04-05T06:11:53;101396.23;;;-1.11;76.24
51147;BME280;37207;53.060;18.726;2023-04-05T06:14:21;101395.48;;;-1.05;76.02
51147;BME280;37207;53.060;18.726;2023-04-05T06:16:47;101395.54;;;-1.00;76.08
51147;BME280;37207;53.060;18.726;2023-04-05T06:19:13;101393.45;;;-0.92;75.95
51147;BME280;37207;53.060;18.726;2023-04-05T06:21:39;101390.19;;;-0.85;75.87
51147;BME280;37207;53.060;18.726;2023-04-05T06:24:05;101387.02;;;-0.79;76.20
51147;BME280;37207;53.060;18.726;2023-04-05T06:26:31;101388.48;;;-0.71;76.29
51147;BME280;37207;53.060;18.726;2023-04-05T06:28:57;101388.86;;;-0.62;75.98
51147;BME280;37207;53.060;18.726;2023-04-05T06:31:30;101390.17;;;-0.58;75.55
51147;BME280;37207;53.060;18.726;2023-04-05T06:33:56;101390.63;;;-0.50;75.53
51147;BME280;37207;53.060;18.726;2023-04-05T06:36:22;101390.77;;;-0.37;75.82
51147;BME280;37207;53.060;18.726;2023-04-05T06:38:49;101389.71;;;-0.24;75.54
51147;BME280;37207;53.060;18.726;2023-04-05T06:41:15;101387.51;;;-0.12;75.62
51147;BME280;37207;53.060;18.726;2023-04-05T06:43:41;101388.86;;;0.01;75.45
51147;BME280;37207;53.060;18.726;2023-04-05T06:46:07;101393.25;;;0.12;75.31
51147;BME280;37207;53.060;18.726;2023-04-05T06:48:36;101393.05;;;0.19;74.82
51147;BME280;37207;53.060;18.726;2023-04-05T06:51:03;101399.19;;;0.21;74.62
51147;BME280;37207;53.060;18.726;2023-04-05T06:53:29;101396.91;;;0.24;74.62
51147;BME280;37207;53.060;18.726;2023-04-05T06:55:56;101396.12;;;0.32;74.82
51147;BME280;37207;53.060;18.726;2023-04-05T06:58:23;101399.70;;;0.42;74.82
51147;BME280;37207;53.060;18.726;2023-04-05T07:00:50;101399.64;;;0.54;74.75
51147;BME280;37207;53.060;18.726;2023-04-05T07:03:16;101397.15;;;0.67;74.80
51147;BME280;37207;53.060;18.726;2023-04-05T07:05:53;101396.71;;;0.76;74.26
51147;BME280;37207;53.060;18.726;2023-04-05T07:08:20;101391.14;;;0.84;74.10
51147;BME280;37207;53.060;18.726;2023-04-05T07:10:46;101392.29;;;0.96;74.33
51147;BME280;37207;53.060;18.726;2023-04-05T07:13:12;101389.39;;;1.19;74.10
51147;BME280;37207;53.060;18.726;2023-04-05T07:15:38;101390.48;;;1.37;73.54
51147;BME280;37207;53.060;18.726;2023-04-05T07:18:04;101388.23;;;1.52;73.24
51147;BME280;37207;53.060;18.726;2023-04-05T07:20:30;101389.42;;;1.72;73.16
51147;BME280;37207;53.060;18.726;2023-04-05T07:22:56;101391.46;;;1.99;73.40
51147;BME280;37207;53.060;18.726;2023-04-05T07:25:23;101391.10;;;2.22;73.16
51147;BME280;37207;53.060;18.726;2023-04-05T07:27:49;101388.27;;;2.30;72.81
51147;BME280;37207;53.060;18.726;2023-04-05T07:30:15;101390.69;;;2.29;72.30
51147;BME280;37207;53.060;18.726;2023-04-05T07:32:42;101397.45;;;2.19;71.97
51147;BME280;37207;53.060;18.726;2023-04-05T07:35:08;101397.73;;;2.08;71.90
51147;BME280;37207;53.060;18.726;2023-04-05T07:37:35;101396.11;;;2.01;71.89
51147;BME280;37207;53.060;18.726;2023-04-05T07:40:02;101399.08;;;2.00;72.39
51147;BME280;37207;53.060;18.726;2023-04-05T07:42:30;101400.50;;;2.05;72.67
51147;BME280;37207;53.060;18.726;2023-04-05T07:44:56;101400.05;;;2.10;72.90
51147;BME280;37207;53.060;18.726;2023-04-05T07:47:23;101398.86;;;2.11;72.27
51147;BME280;37207;53.060;18.726;2023-04-05T07:49:48;101401.67;;;2.05;71.86
51147;BME280;37207;53.060;18.726;2023-04-05T07:52:14;101399.17;;;2.06;71.92
51147;BME280;37207;53.060;18.726;2023-04-05T07:54:40;101400.90;;;2.09;72.10
51147;BME280;37207;53.060;18.726;2023-04-05T07:57:08;101400.52;;;2.09;71.77
51147;BME280;37207;53.060;18.726;2023-04-05T07:59:35;101397.63;;;2.06;71.44
51147;BME280;37207;53.060;18.726;2023-04-05T08:02:02;101397.40;;;2.04;71.48
51147;BME280;37207;53.060;18.726;2023-04-05T08:04:28;101398.11;;;2.15;71.86
51147;BME280;37207;53.060;18.726;2023-04-05T08:06:54;101396.11;;;2.44;72.88
51147;BME280;37207;53.060;18.726;2023-04-05T08:09:20;101399.71;;;3.01;74.27
51147;BME280;37207;53.060;18.726;2023-04-05T08:11:46;101396.65;;;3.63;74.37
51147;BME280;37207;53.060;18.726;2023-04-05T08:14:12;101395.23;;;4.08;72.70
51147;BME280;37207;53.060;18.726;2023-04-05T08:16:37;101392.76;;;4.62;72.97
51147;BME280;37207;53.060;18.726;2023-04-05T08:19:03;101394.96;;;5.14;71.70
51147;BME280;37207;53.060;18.726;2023-04-05T08:21:29;101395.66;;;5.61;70.82
51147;BME280;37207;53.060;18.726;2023-04-05T08:23:55;101388.96;;;6.09;69.31
51147;BME280;37207;53.060;18.726;2023-04-05T08:26:21;101392.29;;;6.53;66.15
51147;BME280;37207;53.060;18.726;2023-04-05T08:28:47;101396.88;;;6.85;64.58
51147;BME280;37207;53.060;18.726;2023-04-05T08:31:13;101395.90;;;7.13;63.85
51147;BME280;37207;53.060;18.726;2023-04-05T08:33:39;101393.63;;;7.55;62.76
51147;BME280;37207;53.060;18.726;2023-04-05T08:36:06;101390.73;;;7.88;62.81
51147;BME280;37207;53.060;18.726;2023-04-05T08:38:33;101392.66;;;8.16;59.03
51147;BME280;37207;53.060;18.726;2023-04-05T08:41:18;101390.46;;;8.41;59.54
51147;BME280;37207;53.060;18.726;2023-04-05T08:46:15;101388.67;;;8.65;56.98
51147;BME280;37207;53.060;18.726;2023-04-05T08:48:42;101382.58;;;9.00;56.01
51147;BME280;37207;53.060;18.726;2023-04-05T08:51:08;101383.61;;;9.21;53.79
51147;BME280;37207;53.060;18.726;2023-04-05T08:53:34;101382.59;;;9.52;54.10
51147;BME280;37207;53.060;18.726;2023-04-05T08:56:02;101384.73;;;9.73;52.23
51147;BME280;37207;53.060;18.726;2023-04-05T08:58:30;101382.77;;;9.39;49.79
51147;BME280;37207;53.060;18.726;2023-04-05T09:00:57;101385.66;;;8.87;49.02
51147;BME280;37207;53.060;18.726;2023-04-05T09:03:33;101382.96;;;8.46;49.02
51147;BME280;37207;53.060;18.726;2023-04-05T09:06:04;101388.36;;;8.08;48.59
51147;BME280;37207;53.060;18.726;2023-04-05T09:08:32;101392.21;;;7.86;48.39
51147;BME280;37207;53.060;18.726;2023-04-05T09:10:58;101392.49;;;7.63;48.75
51147;BME280;37207;53.060;18.726;2023-04-05T09:13:24;101391.56;;;7.51;48.28
51147;BME280;37207;53.060;18.726;2023-04-05T09:15:49;101391.01;;;7.74;49.56
51147;BME280;37207;53.060;18.726;2023-04-05T09:18:16;101390.87;;;8.80;49.78
51147;BME280;37207;53.060;18.726;2023-04-05T09:20:42;101388.39;;;10.04;47.89
51147;BME280;37207;53.060;18.726;2023-04-05T09:23:08;101386.29;;;10.55;46.52
51147;BME280;37207;53.060;18.726;2023-04-05T09:25:36;101391.41;;;10.57;45.87
51147;BME280;37207;53.060;18.726;2023-04-05T09:28:08;101391.90;;;10.57;45.09
51147;BME280;37207;53.060;18.726;2023-04-05T09:30:35;101392.13;;;10.19;44.34
51147;BME280;37207;53.060;18.726;2023-04-05T09:33:03;101389.38;;;9.72;44.40
51147;BME280;37207;53.060;18.726;2023-04-05T09:35:32;101389.16;;;9.63;44.82
51147;BME280;37207;53.060;18.726;2023-04-05T09:38:01;101392.44;;;9.64;44.70
51147;BME280;37207;53.060;18.726;2023-04-05T09:40:42;101390.63;;;9.28;44.26
51147;BME280;37207;53.060;18.726;2023-04-05T09:43:13;101391.21;;;9.02;44.70
51147;BME280;37207;53.060;18.726;2023-04-05T09:45:58;101393.05;;;8.94;46.06
51147;BME280;37207;53.060;18.726;2023-04-05T09:48:44;101393.14;;;8.88;46.74
51147;BME280;37207;53.060;18.726;2023-04-05T09:51:10;101395.05;;;8.61;45.99
51147;BME280;37207;53.060;18.726;2023-04-05T09:53:36;101397.26;;;8.36;45.86
51147;BME280;37207;53.060;18.726;2023-04-05T09:56:08;101396.67;;;8.13;46.72
51147;BME280;37207;53.060;18.726;2023-04-05T09:58:35;101402.55;;;7.96;46.90
51147;BME280;37207;53.060;18.726;2023-04-05T10:01:03;101398.81;;;7.89;47.34
51147;BME280;37207;53.060;18.726;2023-04-05T10:03:29;101399.08;;;7.99;48.49
51147;BME280;37207;53.060;18.726;2023-04-05T10:05:55;101400.72;;;7.97;48.20
51147;BME280;37207;53.060;18.726;2023-04-05T10:08:21;101395.95;;;7.85;47.68
51147;BME280;37207;53.060;18.726;2023-04-05T10:10:49;101394.08;;;7.74;47.17
51147;BME280;37207;53.060;18.726;2023-04-05T10:13:19;101398.45;;;7.65;47.33
51147;BME280;37207;53.060;18.726;2023-04-05T10:15:46;101393.45;;;7.64;47.44
51147;BME280;37207;53.060;18.726;2023-04-05T10:18:17;101394.25;;;7.73;46.15
51147;BME280;37207;53.060;18.726;2023-04-05T10:20:49;101393.88;;;7.78;46.15
51147;BME280;37207;53.060;18.726;2023-04-05T10:23:24;101391.72;;;7.83;46.85
51147;BME280;37207;53.060;18.726;2023-04-05T10:28:29;101398.78;;;7.87;46.35
51147;BME280;37207;53.060;18.726;2023-04-05T10:31:11;101395.30;;;7.95;47.01
51147;BME280;37207;53.060;18.726;2023-04-05T10:33:45;101394.08;;;7.87;46.33
51147;BME280;37207;53.060;18.726;2023-04-05T10:36:44;101394.90;;;7.99;46.70
51147;BME280;37207;53.060;18.726;2023-04-05T10:39:25;101389.58;;;8.41;46.95
51147;BME280;37207;53.060;18.726;2023-04-05T10:42:00;101392.70;;;8.96;46.68
51147;BME280;37207;53.060;18.726;2023-04-05T10:44:30;101394.27;;;9.95;45.34
51147;BME280;37207;53.060;18.726;2023-04-05T10:46:58;101393.33;;;10.77;43.90
51147;BME280;37207;53.060;18.726;2023-04-05T10:51:55;101388.58;;;11.25;42.84
51147;BME280;37207;53.060;18.726;2023-04-05T10:54:21;101386.75;;;12.22;42.05
51147;BME280;37207;53.060;18.726;2023-04-05T10:56:47;101384.88;;;12.56;41.74
51147;BME280;37207;53.060;18.726;2023-04-05T10:59:14;101389.42;;;12.83;41.48
51147;BME280;37207;53.060;18.726;2023-04-05T11:01:40;101384.42;;;13.15;41.23
51147;BME280;37207;53.060;18.726;2023-04-05T11:04:14;101381.36;;;13.48;41.70
51147;BME280;37207;53.060;18.726;2023-04-05T11:06:40;101382.01;;;13.69;39.85
51147;BME280;37207;53.060;18.726;2023-04-05T11:11:39;101377.54;;;13.91;39.69
51147;BME280;37207;53.060;18.726;2023-04-05T11:14:22;101378.55;;;13.91;38.67
51147;BME280;37207;53.060;18.726;2023-04-05T11:16:54;101374.85;;;13.99;39.70
51147;BME280;37207;53.060;18.726;2023-04-05T11:22:12;101376.34;;;14.41;40.29
51147;BME280;37207;53.060;18.726;2023-04-05T11:25:05;101373.40;;;14.58;41.43
51147;BME280;37207;53.060;18.726;2023-04-05T11:27:33;101374.84;;;14.56;37.76
51147;BME280;37207;53.060;18.726;2023-04-05T11:30:03;101372.02;;;14.35;39.13
51147;BME280;37207;53.060;18.726;2023-04-05T11:32:38;101370.23;;;14.31;38.46
51147;BME280;37207;53.060;18.726;2023-04-05T11:35:06;101368.58;;;14.05;38.65
51147;BME280;37207;53.060;18.726;2023-04-05T11:40:25;101373.48;;;12.94;36.71
51147;BME280;37207;53.060;18.726;2023-04-05T11:43:00;101370.80;;;12.45;38.56
51147;BME280;37207;53.060;18.726;2023-04-05T11:45:29;101375.19;;;12.21;39.73
51147;BME280;37207;53.060;18.726;2023-04-05T11:47:55;101377.42;;;11.93;39.60
51147;BME280;37207;53.060;18.726;2023-04-05T11:50:21;101374.77;;;11.48;39.38
51147;BME280;37207;53.060;18.726;2023-04-05T11:53:10;101371.66;;;10.93;39.51
51147;BME280;37207;53.060;18.726;2023-04-05T11:55:38;101370.02;;;10.49;40.38
51147;BME280;37207;53.060;18.726;2023-04-05T11:58:11;101368.77;;;10.15;40.52
51147;BME280;37207;53.060;18.726;2023-04-05T12:00:39;101360.33;;;9.82;40.72
51147;BME280;37207;53.060;18.726;2023-04-05T12:03:05;101359.92;;;9.56;40.67
51147;BME280;37207;53.060;18.726;2023-04-05T12:05:47;101358.81;;;9.33;40.64
51147;BME280;37207;53.060;18.726;2023-04-05T12:08:14;101354.35;;;9.82;41.16
51147;BME280;37207;53.060;18.726;2023-04-05T12:10:40;101352.73;;;10.82;41.15
51147;BME280;37207;53.060;18.726;2023-04-05T12:13:06;101350.60;;;11.98;40.23
51147;BME280;37207;53.060;18.726;2023-04-05T12:15:36;101343.48;;;13.06;39.86
51147;BME280;37207;53.060;18.726;2023-04-05T12:18:02;101341.87;;;14.16;38.28
51147;BME280;37207;53.060;18.726;2023-04-05T12:20:28;101344.80;;;14.85;36.80
51147;BME280;37207;53.060;18.726;2023-04-05T12:22:55;101342.48;;;15.51;36.10
51147;BME280;37207;53.060;18.726;2023-04-05T12:25:22;101343.06;;;16.25;36.22
51147;BME280;37207;53.060;18.726;2023-04-05T12:27:48;101344.97;;;16.64;35.14
51147;BME280;37207;53.060;18.726;2023-04-05T12:30:22;101342.36;;;15.84;35.39
51147;BME280;37207;53.060;18.726;2023-04-05T12:32:54;101339.28;;;14.71;34.74
51147;BME280;37207;53.060;18.726;2023-04-05T12:35:23;101337.52;;;13.54;35.34
51147;BME280;37207;53.060;18.726;2023-04-05T12:37:50;101338.58;;;12.67;36.39
51147;BME280;37207;53.060;18.726;2023-04-05T12:40:22;101343.95;;;11.94;37.05
51147;BME280;37207;53.060;18.726;2023-04-05T12:42:50;101341.20;;;11.31;37.51
51147;BME280;37207;53.060;18.726;2023-04-05T12:45:16;101341.81;;;10.77;38.12
51147;BME280;37207;53.060;18.726;2023-04-05T12:50:15;101339.33;;;10.12;39.17
51147;BME280;37207;53.060;18.726;2023-04-05T12:53:04;101337.38;;;10.19;39.70
51147;BME280;37207;53.060;18.726;2023-04-05T12:55:31;101340.79;;;11.29;38.78
51147;BME280;37207;53.060;18.726;2023-04-05T12:57:59;101340.20;;;12.19;37.86
51147;BME280;37207;53.060;18.726;2023-04-05T13:00:27;101339.17;;;12.99;37.39
51147;BME280;37207;53.060;18.726;2023-04-05T13:02:55;101336.52;;;13.69;37.16
51147;BME280;37207;53.060;18.726;2023-04-05T13:05:23;101336.73;;;14.37;36.97
51147;BME280;37207;53.060;18.726;2023-04-05T13:07:49;101332.38;;;14.91;36.70
51147;BME280;37207;53.060;18.726;2023-04-05T13:10:17;101334.63;;;15.45;35.52
51147;BME280;37207;53.060;18.726;2023-04-05T13:12:44;101336.18;;;15.73;35.14
51147;BME280;37207;53.060;18.726;2023-04-05T13:15:10;101330.73;;;15.85;34.37
51147;BME280;37207;53.060;18.726;2023-04-05T13:17:36;101336.83;;;15.92;35.16
51147;BME280;37207;53.060;18.726;2023-04-05T13:20:03;101334.45;;;16.03;34.35